Derby, United Kingdom
Current Conditions -  °F | °C
As of 4:20 PM on Thursday 29 Jan 2015 (Local Time) from EGNX Reporting Station
Scattered Clouds Scattered Clouds  
Wind Chill: 24°   Ceiling: Unl
Heat Index: 34°   Visibility: 6mi
Dew Point: 30°   Wind: 15mph
Humidity: 87%   Direction: 270°W
Pressure: 28.82"   Gusts: NA
Location:  52.92°N, 1.48°W
Report Text: EGNX 291620Z 27013KT 9999 FEW009 SCT017 01/M01 Q0976
Loading
Personal Weather Stations






























Interactive Weather Map New forecast layout! Learn more

10-Day Weather Forecast

Advertisements
Track Severe Weather on mobile